Mohawk, Tennessee
Current Conditions -  °F | °C
As of 1:55 PM on Tuesday 27 Jan 2015 (Local Time) from KMOR Reporting Station
Broken Clouds Broken Clouds  
Wind Chill: 27°   Ceiling: 3300
Heat Index: 34°   Visibility: 10mi
Dew Point: 27°   Wind: 8mph
Humidity: 75%   Direction: 310°NW
Pressure: 29.97"   Gusts: NA
Location:  36.2°N, 83.05°W
Report Text: KMOR 271855Z AUTO 31007KT 10SM BKN033 01/M03 A2997 RMK
Loading
Personal Weather Stations






























Interactive Weather Map New forecast layout! Learn more

10-Day Weather Forecast

Advertisements
Track Severe Weather on mobile